sensor_id;sensor_type;location;lat;lon;timestamp;P1;durP1;ratioP1;P2;durP2;ratioP2
28802;SDS011;15949;55.656;37.422;2024-01-25T00:04:16;39.45;;;20.50;;
28802;SDS011;15949;55.656;37.422;2024-01-25T00:09:22;43.38;;;21.02;;
28802;SDS011;15949;55.656;37.422;2024-01-25T00:14:27;39.65;;;20.23;;
28802;SDS011;15949;55.656;37.422;2024-01-25T00:19:33;40.28;;;20.02;;
28802;SDS011;15949;55.656;37.422;2024-01-25T00:24:39;38.30;;;20.75;;
28802;SDS011;15949;55.656;37.422;2024-01-25T00:29:45;39.15;;;20.35;;
28802;SDS011;15949;55.656;37.422;2024-01-25T00:34:51;42.38;;;21.33;;
28802;SDS011;15949;55.656;37.422;2024-01-25T00:39:57;41.53;;;21.00;;
28802;SDS011;15949;55.656;37.422;2024-01-25T00:45:03;38.08;;;20.65;;
28802;SDS011;15949;55.656;37.422;2024-01-25T00:50:09;39.33;;;21.17;;
28802;SDS011;15949;55.656;37.422;2024-01-25T00:55:15;43.78;;;21.83;;
28802;SDS011;15949;55.656;37.422;2024-01-25T01:00:21;34.25;;;20.40;;
28802;SDS011;15949;55.656;37.422;2024-01-25T01:05:27;36.08;;;20.05;;
28802;SDS011;15949;55.656;37.422;2024-01-25T01:10:33;36.38;;;19.65;;
28802;SDS011;15949;55.656;37.422;2024-01-25T01:15:38;40.53;;;20.45;;
28802;SDS011;15949;55.656;37.422;2024-01-25T01:20:44;34.63;;;18.33;;
28802;SDS011;15949;55.656;37.422;2024-01-25T01:25:50;33.63;;;18.60;;
28802;SDS011;15949;55.656;37.422;2024-01-25T01:30:55;36.67;;;17.08;;
28802;SDS011;15949;55.656;37.422;2024-01-25T01:36:01;29.58;;;16.52;;
28802;SDS011;15949;55.656;37.422;2024-01-25T01:41:06;30.75;;;16.83;;
28802;SDS011;15949;55.656;37.422;2024-01-25T01:46:27;29.27;;;15.68;;
28802;SDS011;15949;55.656;37.422;2024-01-25T01:51:47;33.67;;;17.60;;
28802;SDS011;15949;55.656;37.422;2024-01-25T01:56:53;27.70;;;15.45;;
28802;SDS011;15949;55.656;37.422;2024-01-25T02:01:59;28.65;;;15.27;;
28802;SDS011;15949;55.656;37.422;2024-01-25T02:07:04;25.00;;;15.15;;
28802;SDS011;15949;55.656;37.422;2024-01-25T02:12:14;24.63;;;13.57;;
28802;SDS011;15949;55.656;37.422;2024-01-25T02:17:23;29.83;;;14.90;;
28802;SDS011;15949;55.656;37.422;2024-01-25T02:22:29;26.40;;;15.45;;
28802;SDS011;15949;55.656;37.422;2024-01-25T02:27:35;26.40;;;14.88;;
28802;SDS011;15949;55.656;37.422;2024-01-25T02:32:43;26.23;;;15.33;;
28802;SDS011;15949;55.656;37.422;2024-01-25T02:37:49;27.48;;;15.90;;
28802;SDS011;15949;55.656;37.422;2024-01-25T02:42:55;33.35;;;15.90;;
28802;SDS011;15949;55.656;37.422;2024-01-25T02:48:01;33.72;;;16.98;;
28802;SDS011;15949;55.656;37.422;2024-01-25T02:53:08;35.10;;;17.75;;
28802;SDS011;15949;55.656;37.422;2024-01-25T02:58:14;37.80;;;19.33;;
28802;SDS011;15949;55.656;37.422;2024-01-25T03:03:19;33.53;;;18.35;;
28802;SDS011;15949;55.656;37.422;2024-01-25T03:08:25;33.70;;;17.35;;
28802;SDS011;15949;55.656;37.422;2024-01-25T03:13:31;30.45;;;17.13;;
28802;SDS011;15949;55.656;37.422;2024-01-25T03:18:36;30.60;;;17.42;;
28802;SDS011;15949;55.656;37.422;2024-01-25T03:23:42;27.23;;;16.23;;
28802;SDS011;15949;55.656;37.422;2024-01-25T03:28:48;23.85;;;14.75;;
28802;SDS011;15949;55.656;37.422;2024-01-25T03:33:53;25.63;;;14.73;;
28802;SDS011;15949;55.656;37.422;2024-01-25T03:38:59;27.65;;;15.35;;
28802;SDS011;15949;55.656;37.422;2024-01-25T03:44:04;29.00;;;15.50;;
28802;SDS011;15949;55.656;37.422;2024-01-25T03:49:10;24.05;;;15.00;;
28802;SDS011;15949;55.656;37.422;2024-01-25T03:54:16;26.38;;;15.00;;
28802;SDS011;15949;55.656;37.422;2024-01-25T03:59:22;26.65;;;14.85;;
28802;SDS011;15949;55.656;37.422;2024-01-25T04:04:27;23.38;;;14.07;;
28802;SDS011;15949;55.656;37.422;2024-01-25T04:09:33;23.13;;;14.02;;
28802;SDS011;15949;55.656;37.422;2024-01-25T04:14:38;22.13;;;13.43;;
28802;SDS011;15949;55.656;37.422;2024-01-25T04:19:44;22.52;;;13.25;;
28802;SDS011;15949;55.656;37.422;2024-01-25T04:24:50;23.15;;;13.90;;
28802;SDS011;15949;55.656;37.422;2024-01-25T04:29:55;23.52;;;13.63;;
28802;SDS011;15949;55.656;37.422;2024-01-25T04:35:01;20.63;;;13.18;;
28802;SDS011;15949;55.656;37.422;2024-01-25T04:40:07;24.58;;;14.00;;
28802;SDS011;15949;55.656;37.422;2024-01-25T04:45:13;22.27;;;13.70;;
28802;SDS011;15949;55.656;37.422;2024-01-25T04:50:19;19.45;;;12.90;;
28802;SDS011;15949;55.656;37.422;2024-01-25T04:55:24;24.80;;;13.15;;
28802;SDS011;15949;55.656;37.422;2024-01-25T05:00:30;20.52;;;13.48;;
28802;SDS011;15949;55.656;37.422;2024-01-25T05:05:36;21.58;;;13.18;;
28802;SDS011;15949;55.656;37.422;2024-01-25T05:10:41;20.25;;;12.55;;
28802;SDS011;15949;55.656;37.422;2024-01-25T05:15:47;21.75;;;12.50;;
28802;SDS011;15949;55.656;37.422;2024-01-25T05:20:52;20.55;;;12.57;;
28802;SDS011;15949;55.656;37.422;2024-01-25T05:25:58;21.95;;;12.77;;
28802;SDS011;15949;55.656;37.422;2024-01-25T05:31:04;22.17;;;13.02;;
28802;SDS011;15949;55.656;37.422;2024-01-25T05:36:10;21.42;;;12.93;;
28802;SDS011;15949;55.656;37.422;2024-01-25T05:41:15;20.77;;;14.05;;
28802;SDS011;15949;55.656;37.422;2024-01-25T05:46:21;19.35;;;13.20;;
28802;SDS011;15949;55.656;37.422;2024-01-25T05:51:26;20.25;;;13.15;;
28802;SDS011;15949;55.656;37.422;2024-01-25T05:56:32;22.70;;;14.30;;
28802;SDS011;15949;55.656;37.422;2024-01-25T06:01:38;22.35;;;13.70;;
28802;SDS011;15949;55.656;37.422;2024-01-25T06:06:43;24.35;;;14.45;;
28802;SDS011;15949;55.656;37.422;2024-01-25T06:11:49;22.67;;;13.60;;
28802;SDS011;15949;55.656;37.422;2024-01-25T06:16:55;21.95;;;14.07;;
28802;SDS011;15949;55.656;37.422;2024-01-25T06:22:01;25.08;;;14.90;;
28802;SDS011;15949;55.656;37.422;2024-01-25T06:27:09;23.75;;;14.43;;
28802;SDS011;15949;55.656;37.422;2024-01-25T06:32:14;22.40;;;13.73;;
28802;SDS011;15949;55.656;37.422;2024-01-25T06:37:20;22.50;;;13.73;;
28802;SDS011;15949;55.656;37.422;2024-01-25T06:42:26;23.20;;;13.63;;
28802;SDS011;15949;55.656;37.422;2024-01-25T06:47:31;22.30;;;14.05;;
28802;SDS011;15949;55.656;37.422;2024-01-25T06:52:37;23.13;;;13.75;;
28802;SDS011;15949;55.656;37.422;2024-01-25T06:57:43;24.77;;;14.70;;
28802;SDS011;15949;55.656;37.422;2024-01-25T07:02:48;24.13;;;14.82;;
28802;SDS011;15949;55.656;37.422;2024-01-25T07:07:54;26.88;;;15.77;;
28802;SDS011;15949;55.656;37.422;2024-01-25T07:12:59;25.23;;;16.15;;
28802;SDS011;15949;55.656;37.422;2024-01-25T07:18:05;30.17;;;16.55;;
28802;SDS011;15949;55.656;37.422;2024-01-25T07:23:11;25.30;;;15.95;;
28802;SDS011;15949;55.656;37.422;2024-01-25T07:28:18;28.40;;;15.63;;
28802;SDS011;15949;55.656;37.422;2024-01-25T07:33:24;30.30;;;17.05;;
28802;SDS011;15949;55.656;37.422;2024-01-25T07:38:30;25.75;;;14.55;;
28802;SDS011;15949;55.656;37.422;2024-01-25T07:43:36;24.77;;;15.73;;
28802;SDS011;15949;55.656;37.422;2024-01-25T07:48:41;22.85;;;13.30;;
28802;SDS011;15949;55.656;37.422;2024-01-25T07:53:47;25.08;;;14.55;;
28802;SDS011;15949;55.656;37.422;2024-01-25T07:58:52;28.23;;;15.90;;
28802;SDS011;15949;55.656;37.422;2024-01-25T08:03:58;25.70;;;14.63;;
28802;SDS011;15949;55.656;37.422;2024-01-25T08:09:05;21.80;;;13.73;;
28802;SDS011;15949;55.656;37.422;2024-01-25T08:14:10;22.52;;;14.82;;
28802;SDS011;15949;55.656;37.422;2024-01-25T08:19:16;26.52;;;15.00;;
28802;SDS011;15949;55.656;37.422;2024-01-25T08:24:22;21.70;;;14.27;;
28802;SDS011;15949;55.656;37.422;2024-01-25T08:29:27;23.45;;;13.65;;
28802;SDS011;15949;55.656;37.422;2024-01-25T08:34:33;24.67;;;14.80;;
28802;SDS011;15949;55.656;37.422;2024-01-25T08:39:38;28.02;;;15.23;;
28802;SDS011;15949;55.656;37.422;2024-01-25T08:44:44;26.02;;;14.75;;
28802;SDS011;15949;55.656;37.422;2024-01-25T08:49:54;24.67;;;14.23;;
28802;SDS011;15949;55.656;37.422;2024-01-25T08:54:59;23.70;;;14.45;;
28802;SDS011;15949;55.656;37.422;2024-01-25T09:00:05;22.95;;;13.65;;
28802;SDS011;15949;55.656;37.422;2024-01-25T09:05:15;24.13;;;13.60;;
28802;SDS011;15949;55.656;37.422;2024-01-25T09:10:21;22.33;;;13.70;;
28802;SDS011;15949;55.656;37.422;2024-01-25T09:15:26;20.63;;;12.73;;
28802;SDS011;15949;55.656;37.422;2024-01-25T09:20:33;21.10;;;13.18;;
28802;SDS011;15949;55.656;37.422;2024-01-25T09:25:38;19.90;;;12.27;;
28802;SDS011;15949;55.656;37.422;2024-01-25T09:30:44;19.95;;;12.73;;
28802;SDS011;15949;55.656;37.422;2024-01-25T09:35:50;23.17;;;12.40;;
28802;SDS011;15949;55.656;37.422;2024-01-25T09:40:56;20.27;;;12.05;;
28802;SDS011;15949;55.656;37.422;2024-01-25T09:46:02;19.65;;;12.27;;
28802;SDS011;15949;55.656;37.422;2024-01-25T09:51:07;20.02;;;12.70;;
28802;SDS011;15949;55.656;37.422;2024-01-25T09:56:13;20.55;;;12.43;;
28802;SDS011;15949;55.656;37.422;2024-01-25T10:01:20;20.42;;;13.18;;
28802;SDS011;15949;55.656;37.422;2024-01-25T10:06:26;23.88;;;13.52;;
28802;SDS011;15949;55.656;37.422;2024-01-25T10:11:34;21.83;;;11.77;;
28802;SDS011;15949;55.656;37.422;2024-01-25T10:16:41;20.88;;;13.23;;
28802;SDS011;15949;55.656;37.422;2024-01-25T10:21:46;23.55;;;13.07;;
28802;SDS011;15949;55.656;37.422;2024-01-25T10:26:52;18.73;;;12.30;;
28802;SDS011;15949;55.656;37.422;2024-01-25T10:31:58;25.40;;;13.77;;
28802;SDS011;15949;55.656;37.422;2024-01-25T10:37:07;21.75;;;13.15;;
28802;SDS011;15949;55.656;37.422;2024-01-25T10:42:13;20.83;;;13.03;;
28802;SDS011;15949;55.656;37.422;2024-01-25T10:47:18;22.20;;;13.48;;
28802;SDS011;15949;55.656;37.422;2024-01-25T10:52:25;19.20;;;12.52;;
28802;SDS011;15949;55.656;37.422;2024-01-25T10:57:52;23.83;;;13.00;;
28802;SDS011;15949;55.656;37.422;2024-01-25T11:02:57;20.92;;;12.35;;
28802;SDS011;15949;55.656;37.422;2024-01-25T11:08:03;19.55;;;12.38;;
28802;SDS011;15949;55.656;37.422;2024-01-25T11:13:13;20.52;;;12.25;;
28802;SDS011;15949;55.656;37.422;2024-01-25T11:18:20;20.55;;;12.40;;
28802;SDS011;15949;55.656;37.422;2024-01-25T11:23:31;20.83;;;11.80;;
28802;SDS011;15949;55.656;37.422;2024-01-25T11:28:37;26.42;;;14.57;;
28802;SDS011;15949;55.656;37.422;2024-01-25T11:33:43;20.05;;;12.68;;
28802;SDS011;15949;55.656;37.422;2024-01-25T11:38:48;19.00;;;12.27;;
28802;SDS011;15949;55.656;37.422;2024-01-25T11:43:54;21.25;;;13.20;;
28802;SDS011;15949;55.656;37.422;2024-01-25T11:49:00;24.65;;;13.30;;
28802;SDS011;15949;55.656;37.422;2024-01-25T11:54:06;20.00;;;13.05;;
28802;SDS011;15949;55.656;37.422;2024-01-25T11:59:12;22.33;;;13.30;;
28802;SDS011;15949;55.656;37.422;2024-01-25T12:04:18;20.60;;;13.05;;
28802;SDS011;15949;55.656;37.422;2024-01-25T12:09:23;22.63;;;14.38;;
28802;SDS011;15949;55.656;37.422;2024-01-25T12:14:29;22.27;;;13.88;;
28802;SDS011;15949;55.656;37.422;2024-01-25T12:19:34;22.25;;;13.63;;
28802;SDS011;15949;55.656;37.422;2024-01-25T12:24:40;21.73;;;14.27;;
28802;SDS011;15949;55.656;37.422;2024-01-25T12:29:46;21.75;;;14.10;;
28802;SDS011;15949;55.656;37.422;2024-01-25T12:34:55;21.13;;;12.60;;
28802;SDS011;15949;55.656;37.422;2024-01-25T12:40:01;22.58;;;13.43;;
28802;SDS011;15949;55.656;37.422;2024-01-25T12:45:08;22.25;;;13.65;;
28802;SDS011;15949;55.656;37.422;2024-01-25T12:50:14;24.30;;;13.82;;
28802;SDS011;15949;55.656;37.422;2024-01-25T12:55:19;21.70;;;13.32;;
28802;SDS011;15949;55.656;37.422;2024-01-25T13:00:25;23.17;;;13.90;;
28802;SDS011;15949;55.656;37.422;2024-01-25T13:05:31;21.33;;;13.05;;
28802;SDS011;15949;55.656;37.422;2024-01-25T13:10:39;23.13;;;13.93;;
28802;SDS011;15949;55.656;37.422;2024-01-25T13:15:45;20.75;;;13.23;;
28802;SDS011;15949;55.656;37.422;2024-01-25T13:20:51;24.17;;;14.60;;
28802;SDS011;15949;55.656;37.422;2024-01-25T13:25:56;21.85;;;14.18;;
28802;SDS011;15949;55.656;37.422;2024-01-25T13:31:02;27.95;;;15.15;;
28802;SDS011;15949;55.656;37.422;2024-01-25T13:36:08;26.02;;;14.48;;
28802;SDS011;15949;55.656;37.422;2024-01-25T13:41:16;26.63;;;15.20;;
28802;SDS011;15949;55.656;37.422;2024-01-25T13:46:21;30.88;;;16.75;;
28802;SDS011;15949;55.656;37.422;2024-01-25T13:51:27;30.33;;;18.85;;
28802;SDS011;15949;55.656;37.422;2024-01-25T13:56:32;33.85;;;19.77;;
28802;SDS011;15949;55.656;37.422;2024-01-25T14:01:38;34.92;;;21.52;;
28802;SDS011;15949;55.656;37.422;2024-01-25T14:06:44;43.38;;;22.38;;
28802;SDS011;15949;55.656;37.422;2024-01-25T14:11:49;38.95;;;24.77;;
28802;SDS011;15949;55.656;37.422;2024-01-25T14:16:55;47.20;;;25.00;;
28802;SDS011;15949;55.656;37.422;2024-01-25T14:22:00;47.05;;;25.80;;
28802;SDS011;15949;55.656;37.422;2024-01-25T14:27:06;47.38;;;27.10;;
28802;SDS011;15949;55.656;37.422;2024-01-25T14:32:12;45.97;;;27.58;;
28802;SDS011;15949;55.656;37.422;2024-01-25T14:37:17;45.95;;;26.33;;
28802;SDS011;15949;55.656;37.422;2024-01-25T14:42:23;50.13;;;27.67;;
28802;SDS011;15949;55.656;37.422;2024-01-25T14:47:28;46.30;;;28.10;;
28802;SDS011;15949;55.656;37.422;2024-01-25T14:52:34;47.63;;;26.73;;
28802;SDS011;15949;55.656;37.422;2024-01-25T14:57:40;48.05;;;27.60;;
28802;SDS011;15949;55.656;37.422;2024-01-25T15:02:46;53.30;;;28.20;;
28802;SDS011;15949;55.656;37.422;2024-01-25T15:07:52;46.88;;;27.92;;
28802;SDS011;15949;55.656;37.422;2024-01-25T15:12:57;45.92;;;26.92;;
28802;SDS011;15949;55.656;37.422;2024-01-25T15:18:04;45.05;;;27.98;;
28802;SDS011;15949;55.656;37.422;2024-01-25T15:23:10;46.20;;;28.42;;
28802;SDS011;15949;55.656;37.422;2024-01-25T15:28:16;51.78;;;30.13;;
28802;SDS011;15949;55.656;37.422;2024-01-25T15:33:21;50.85;;;29.13;;
28802;SDS011;15949;55.656;37.422;2024-01-25T15:38:27;46.28;;;28.88;;
28802;SDS011;15949;55.656;37.422;2024-01-25T15:43:32;48.95;;;29.23;;
28802;SDS011;15949;55.656;37.422;2024-01-25T15:48:38;49.72;;;28.75;;
28802;SDS011;15949;55.656;37.422;2024-01-25T15:53:44;51.30;;;29.73;;
28802;SDS011;15949;55.656;37.422;2024-01-25T15:58:49;49.22;;;29.63;;
28802;SDS011;15949;55.656;37.422;2024-01-25T16:03:55;48.13;;;28.88;;
28802;SDS011;15949;55.656;37.422;2024-01-25T16:09:01;54.88;;;30.08;;
28802;SDS011;15949;55.656;37.422;2024-01-25T16:14:07;49.50;;;30.65;;
28802;SDS011;15949;55.656;37.422;2024-01-25T16:19:13;49.90;;;31.80;;
28802;SDS011;15949;55.656;37.422;2024-01-25T16:24:18;49.08;;;30.13;;
28802;SDS011;15949;55.656;37.422;2024-01-25T16:29:24;57.25;;;32.20;;
28802;SDS011;15949;55.656;37.422;2024-01-25T16:34:30;56.58;;;33.17;;
28802;SDS011;15949;55.656;37.422;2024-01-25T16:39:35;52.13;;;31.60;;
28802;SDS011;15949;55.656;37.422;2024-01-25T16:44:41;56.10;;;33.20;;
28802;SDS011;15949;55.656;37.422;2024-01-25T16:49:47;51.67;;;33.15;;
28802;SDS011;15949;55.656;37.422;2024-01-25T16:54:52;57.13;;;34.15;;
28802;SDS011;15949;55.656;37.422;2024-01-25T16:59:58;61.85;;;35.58;;
28802;SDS011;15949;55.656;37.422;2024-01-25T17:05:03;63.10;;;36.67;;
28802;SDS011;15949;55.656;37.422;2024-01-25T17:10:09;65.60;;;37.50;;
28802;SDS011;15949;55.656;37.422;2024-01-25T17:15:15;69.30;;;39.70;;
28802;SDS011;15949;55.656;37.422;2024-01-25T17:20:21;66.88;;;37.17;;
28802;SDS011;15949;55.656;37.422;2024-01-25T17:25:27;69.28;;;40.22;;
28802;SDS011;15949;55.656;37.422;2024-01-25T17:30:32;72.65;;;40.03;;
28802;SDS011;15949;55.656;37.422;2024-01-25T17:35:39;71.43;;;40.90;;
28802;SDS011;15949;55.656;37.422;2024-01-25T17:40:47;70.63;;;40.72;;
28802;SDS011;15949;55.656;37.422;2024-01-25T17:45:53;77.00;;;41.78;;
28802;SDS011;15949;55.656;37.422;2024-01-25T17:50:59;76.82;;;42.85;;
28802;SDS011;15949;55.656;37.422;2024-01-25T17:56:04;71.40;;;40.50;;
28802;SDS011;15949;55.656;37.422;2024-01-25T18:01:10;74.03;;;41.40;;
28802;SDS011;15949;55.656;37.422;2024-01-25T18:06:16;73.38;;;40.70;;
28802;SDS011;15949;55.656;37.422;2024-01-25T18:11:22;73.75;;;40.03;;
28802;SDS011;15949;55.656;37.422;2024-01-25T18:16:27;72.95;;;41.28;;
28802;SDS011;15949;55.656;37.422;2024-01-25T18:21:33;72.00;;;40.33;;
28802;SDS011;15949;55.656;37.422;2024-01-25T18:26:39;71.63;;;40.88;;
28802;SDS011;15949;55.656;37.422;2024-01-25T18:31:44;71.78;;;39.10;;
28802;SDS011;15949;55.656;37.422;2024-01-25T18:36:50;76.03;;;41.33;;
28802;SDS011;15949;55.656;37.422;2024-01-25T18:41:55;70.68;;;40.50;;
28802;SDS011;15949;55.656;37.422;2024-01-25T18:47:01;74.75;;;42.08;;
28802;SDS011;15949;55.656;37.422;2024-01-25T18:52:07;66.63;;;40.08;;
28802;SDS011;15949;55.656;37.422;2024-01-25T18:57:15;70.43;;;41.17;;
28802;SDS011;15949;55.656;37.422;2024-01-25T19:02:21;73.53;;;42.05;;
28802;SDS011;15949;55.656;37.422;2024-01-25T19:07:27;72.80;;;42.70;;
28802;SDS011;15949;55.656;37.422;2024-01-25T19:12:33;76.22;;;42.92;;
28802;SDS011;15949;55.656;37.422;2024-01-25T19:17:38;75.40;;;41.28;;
28802;SDS011;15949;55.656;37.422;2024-01-25T19:22:44;72.20;;;42.35;;
28802;SDS011;15949;55.656;37.422;2024-01-25T19:27:50;74.93;;;42.42;;
28802;SDS011;15949;55.656;37.422;2024-01-25T19:32:55;78.82;;;44.08;;
28802;SDS011;15949;55.656;37.422;2024-01-25T19:38:01;86.15;;;44.35;;
28802;SDS011;15949;55.656;37.422;2024-01-25T19:43:07;83.97;;;44.35;;
28802;SDS011;15949;55.656;37.422;2024-01-25T19:48:12;76.60;;;42.65;;
28802;SDS011;15949;55.656;37.422;2024-01-25T19:53:18;79.88;;;43.75;;
28802;SDS011;15949;55.656;37.422;2024-01-25T19:58:24;71.90;;;41.72;;
28802;SDS011;15949;55.656;37.422;2024-01-25T20:03:33;74.35;;;42.67;;
28802;SDS011;15949;55.656;37.422;2024-01-25T20:08:38;75.28;;;40.65;;
28802;SDS011;15949;55.656;37.422;2024-01-25T20:13:44;69.72;;;41.35;;
28802;SDS011;15949;55.656;37.422;2024-01-25T20:18:50;73.38;;;40.20;;
28802;SDS011;15949;55.656;37.422;2024-01-25T20:23:56;73.80;;;41.30;;
28802;SDS011;15949;55.656;37.422;2024-01-25T20:29:01;77.88;;;42.47;;
28802;SDS011;15949;55.656;37.422;2024-01-25T20:34:07;75.40;;;42.20;;
28802;SDS011;15949;55.656;37.422;2024-01-25T20:39:12;77.15;;;41.72;;
28802;SDS011;15949;55.656;37.422;2024-01-25T20:44:18;75.40;;;40.83;;
28802;SDS011;15949;55.656;37.422;2024-01-25T20:49:24;73.38;;;40.10;;
28802;SDS011;15949;55.656;37.422;2024-01-25T20:54:30;74.45;;;40.80;;
28802;SDS011;15949;55.656;37.422;2024-01-25T20:59:38;77.60;;;39.88;;
28802;SDS011;15949;55.656;37.422;2024-01-25T21:04:44;74.03;;;39.25;;
28802;SDS011;15949;55.656;37.422;2024-01-25T21:09:50;76.25;;;40.63;;
28802;SDS011;15949;55.656;37.422;2024-01-25T21:14:55;71.05;;;39.80;;
28802;SDS011;15949;55.656;37.422;2024-01-25T21:20:01;75.35;;;40.20;;
28802;SDS011;15949;55.656;37.422;2024-01-25T21:25:09;73.00;;;39.33;;
28802;SDS011;15949;55.656;37.422;2024-01-25T21:30:15;71.20;;;40.85;;
28802;SDS011;15949;55.656;37.422;2024-01-25T21:35:21;69.97;;;38.65;;
28802;SDS011;15949;55.656;37.422;2024-01-25T21:40:27;72.72;;;38.70;;
28802;SDS011;15949;55.656;37.422;2024-01-25T21:45:32;72.63;;;38.78;;
28802;SDS011;15949;55.656;37.422;2024-01-25T21:50:38;69.50;;;37.70;;
28802;SDS011;15949;55.656;37.422;2024-01-25T21:55:44;67.68;;;38.10;;
28802;SDS011;15949;55.656;37.422;2024-01-25T22:00:50;65.88;;;37.00;;
28802;SDS011;15949;55.656;37.422;2024-01-25T22:05:55;66.25;;;37.00;;
28802;SDS011;15949;55.656;37.422;2024-01-25T22:11:01;65.47;;;37.88;;
28802;SDS011;15949;55.656;37.422;2024-01-25T22:16:07;69.03;;;37.22;;
28802;SDS011;15949;55.656;37.422;2024-01-25T22:21:14;71.05;;;38.10;;
28802;SDS011;15949;55.656;37.422;2024-01-25T22:26:20;64.30;;;37.22;;
28802;SDS011;15949;55.656;37.422;2024-01-25T22:31:26;73.50;;;37.22;;
28802;SDS011;15949;55.656;37.422;2024-01-25T22:36:31;65.18;;;37.38;;
28802;SDS011;15949;55.656;37.422;2024-01-25T22:41:37;74.28;;;38.92;;
28802;SDS011;15949;55.656;37.422;2024-01-25T22:46:43;62.78;;;36.97;;
28802;SDS011;15949;55.656;37.422;2024-01-25T22:51:48;65.47;;;37.05;;
28802;SDS011;15949;55.656;37.422;2024-01-25T22:56:54;68.35;;;37.78;;
28802;SDS011;15949;55.656;37.422;2024-01-25T23:02:00;68.15;;;38.42;;
28802;SDS011;15949;55.656;37.422;2024-01-25T23:07:05;67.22;;;36.40;;
28802;SDS011;15949;55.656;37.422;2024-01-25T23:12:11;61.58;;;36.15;;
28802;SDS011;15949;55.656;37.422;2024-01-25T23:17:17;64.03;;;36.97;;
28802;SDS011;15949;55.656;37.422;2024-01-25T23:22:22;63.70;;;36.08;;
28802;SDS011;15949;55.656;37.422;2024-01-25T23:27:28;63.67;;;35.85;;
28802;SDS011;15949;55.656;37.422;2024-01-25T23:32:33;64.10;;;34.70;;
28802;SDS011;15949;55.656;37.422;2024-01-25T23:37:42;63.58;;;36.28;;
28802;SDS011;15949;55.656;37.422;2024-01-25T23:42:47;67.47;;;35.17;;
28802;SDS011;15949;55.656;37.422;2024-01-25T23:47:53;63.05;;;35.47;;
28802;SDS011;15949;55.656;37.422;2024-01-25T23:52:59;57.45;;;32.38;;
28802;SDS011;15949;55.656;37.422;2024-01-25T23:58:04;62.45;;;34.13;;
